Time;durP1;ratioP1;P1;durP2;ratioP2;P2;SDS_P1;SDS_P2;PMS_P1;PMS_P2;Temp;Humidity;BMP_temperature;BMP_pressure;BME280_temperature;BME280_humidity;BME280_pressure;Samples;Min_cycle;Max_cycle;Signal;HPM_P1;HPM_P2
2022/05/04 00:01:17;;;;;;;30.35;15.45;;;10.40;99.90;;;;;;5226303;28;20039;-77
2022/05/04 00:03:48;;;;;;;27.95;17.88;;;10.30;99.90;;;;;;5227901;28;20107;-76
2022/05/04 00:06:19;;;;;;;11.75;6.97;;;10.50;99.90;;;;;;5228142;28;20071;-80
2022/05/04 00:08:50;;;;;;;9.48;4.85;;;10.30;99.90;;;;;;5228237;28;20020;-76
2022/05/04 00:11:21;;;;;;;8.35;5.32;;;10.60;99.90;;;;;;5228407;28;20412;-80
2022/05/04 00:13:52;;;;;;;6.55;3.15;;;10.50;99.90;;;;;;5228216;28;20025;-84
2022/05/04 00:16:23;;;;;;;7.00;2.60;;;10.50;99.90;;;;;;5227862;28;20134;-84
2022/05/04 00:18:54;;;;;;;5.32;2.33;;;10.60;99.90;;;;;;5227814;28;20029;-76
2022/05/04 00:21:25;;;;;;;11.77;3.70;;;10.30;99.90;;;;;;5228526;28;20060;-76
2022/05/04 00:23:55;;;;;;;7.18;1.92;;;10.40;99.90;;;;;;5227849;28;20075;-84
2022/05/04 00:26:26;;;;;;;2.97;1.85;;;10.30;99.90;;;;;;5227698;28;20029;-84
2022/05/04 00:28:57;;;;;;;3.55;2.08;;;10.50;99.90;;;;;;5227541;28;20063;-76
2022/05/04 00:31:30;;;;;;;3.55;2.42;;;10.40;99.90;;;;;;5227937;28;20428;-76
2022/05/04 00:34:00;;;;;;;7.93;2.50;;;10.50;99.90;;;;;;5228113;28;20369;-76
2022/05/04 00:36:31;;;;;;;3.83;2.05;;;10.30;99.90;;;;;;5227777;28;20031;-76
2022/05/04 00:39:02;;;;;;;4.57;2.50;;;10.20;99.90;;;;;;5227775;28;20491;-76
2022/05/04 00:41:33;;;;;;;3.72;2.10;;;10.10;99.90;;;;;;5227406;28;20481;-76
2022/05/04 00:44:04;;;;;;;7.55;2.40;;;10.00;99.90;;;;;;5227616;28;20024;-76
2022/05/04 00:46:35;;;;;;;3.65;2.00;;;10.10;99.90;;;;;;5227630;28;20036;-85
2022/05/04 00:49:05;;;;;;;4.70;2.20;;;10.30;99.90;;;;;;5226408;28;20025;-84
2022/05/04 00:51:37;;;;;;;6.68;2.13;;;10.50;99.90;;;;;;5227546;28;20036;-77
2022/05/04 00:54:08;;;;;;;7.53;2.58;;;10.20;99.90;;;;;;5227569;28;20017;-83
2022/05/04 00:56:39;;;;;;;8.48;2.85;;;10.20;99.90;;;;;;5226116;28;20131;-76
2022/05/04 00:59:10;;;;;;;4.43;2.35;;;10.30;99.90;;;;;;5227618;28;20029;-76
2022/05/04 01:01:42;;;;;;;5.93;3.25;;;10.20;99.90;;;;;;5226047;28;20037;-76
2022/05/04 01:04:13;;;;;;;5.50;3.00;;;10.30;99.90;;;;;;5227383;28;20120;-76
2022/05/04 01:06:45;;;;;;;12.15;4.65;;;10.20;99.90;;;;;;5227535;28;20056;-76
2022/05/04 01:09:16;;;;;;;4.45;2.55;;;10.10;99.90;;;;;;5227782;28;20525;-76
2022/05/04 01:11:48;;;;;;;5.95;2.33;;;10.20;99.90;;;;;;5227375;28;20108;-76
2022/05/04 01:14:18;;;;;;;5.55;2.13;;;10.00;99.90;;;;;;5230543;28;20033;-76
2022/05/04 01:16:49;;;;;;;8.43;2.72;;;10.20;99.90;;;;;;5231404;28;20021;-76
2022/05/04 01:19:20;;;;;;;5.22;2.70;;;10.20;99.90;;;;;;5231387;28;20021;-76
2022/05/04 01:21:51;;;;;;;4.53;2.53;;;10.20;99.90;;;;;;5231131;28;20037;-76
2022/05/04 01:24:21;;;;;;;4.90;3.00;;;10.10;99.90;;;;;;5231258;28;20381;-76
2022/05/04 01:26:52;;;;;;;7.15;2.97;;;9.90;99.90;;;;;;5231078;28;20044;-77
2022/05/04 01:29:23;;;;;;;10.45;3.08;;;10.00;99.90;;;;;;5229933;28;20035;-84
2022/05/04 01:31:54;;;;;;;6.03;2.92;;;10.00;99.90;;;;;;5231141;28;20457;-76
2022/05/04 01:34:28;;;;;;;7.45;3.47;;;10.10;99.90;;;;;;5231622;28;20170;-76
2022/05/04 01:36:59;;;;;;;5.53;3.13;;;9.90;99.90;;;;;;5230927;28;20025;-76
2022/05/04 01:39:29;;;;;;;5.82;3.05;;;10.10;99.90;;;;;;5229613;28;20035;-76
2022/05/04 01:42:03;;;;;;;5.45;2.50;;;10.30;99.90;;;;;;5229670;28;20392;-76
2022/05/04 01:44:34;;;;;;;8.32;2.65;;;10.30;99.90;;;;;;5230809;28;20078;-77
2022/05/04 01:47:05;;;;;;;4.28;2.70;;;10.10;99.90;;;;;;5230597;28;20025;-84
2022/05/04 01:49:36;;;;;;;6.70;2.55;;;10.10;99.90;;;;;;5230653;28;20103;-84
2022/05/04 01:52:07;;;;;;;5.47;2.75;;;10.30;99.90;;;;;;5230778;28;20063;-76
2022/05/04 01:54:38;;;;;;;7.03;2.55;;;10.30;99.90;;;;;;5230795;28;20093;-76
2022/05/04 01:57:09;;;;;;;4.15;2.38;;;10.20;99.90;;;;;;5230349;28;20028;-76
2022/05/04 01:59:40;;;;;;;6.05;2.50;;;10.20;99.90;;;;;;5230606;28;20033;-76
2022/05/04 02:02:11;;;;;;;7.15;2.55;;;10.10;99.90;;;;;;5230737;28;20060;-76
2022/05/04 02:04:42;;;;;;;3.22;2.50;;;10.10;99.90;;;;;;5229154;28;20032;-76
2022/05/04 02:07:13;;;;;;;4.63;2.78;;;10.00;99.90;;;;;;5230348;28;20029;-76
2022/05/04 02:09:44;;;;;;;9.38;3.13;;;9.90;99.90;;;;;;5230397;28;20017;-76
2022/05/04 02:12:15;;;;;;;7.82;3.20;;;9.90;99.90;;;;;;5230726;28;20028;-76
2022/05/04 02:14:46;;;;;;;5.55;2.55;;;9.90;99.90;;;;;;5230419;28;20025;-76
2022/05/04 02:17:17;;;;;;;6.15;2.75;;;10.10;99.90;;;;;;5230217;28;20033;-76
2022/05/04 02:19:47;;;;;;;6.43;2.88;;;10.20;99.90;;;;;;5230314;28;20033;-77
2022/05/04 02:22:18;;;;;;;15.27;4.93;;;10.00;99.90;;;;;;5229895;28;20063;-76
2022/05/04 02:24:49;;;;;;;3.85;2.53;;;9.80;99.90;;;;;;5229335;28;20021;-76
2022/05/04 02:27:20;;;;;;;8.18;2.47;;;9.90;99.90;;;;;;5229781;28;20057;-84
2022/05/04 02:29:51;;;;;;;9.55;2.80;;;9.80;99.90;;;;;;5230069;28;20029;-76
2022/05/04 02:32:21;;;;;;;5.55;2.65;;;10.10;99.90;;;;;;5230341;28;20392;-76
2022/05/04 02:37:57;;;;;;;5.32;2.85;;;10.10;99.90;;;;;;5230215;28;20087;-76
2022/05/04 02:40:28;;;;;;;5.22;2.90;;;10.00;99.90;;;;;;5229911;28;20049;-80
2022/05/04 02:43:01;;;;;;;5.03;2.38;;;10.00;99.90;;;;;;5229772;28;20053;-76
2022/05/04 02:45:32;;;;;;;3.88;2.08;;;10.10;99.90;;;;;;5230165;28;20029;-83
2022/05/04 02:48:03;;;;;;;4.70;2.22;;;10.20;99.90;;;;;;5229626;28;20090;-76
2022/05/04 02:50:34;;;;;;;3.47;2.20;;;10.00;99.90;;;;;;5229795;28;20033;-82
2022/05/04 02:53:05;;;;;;;6.68;2.47;;;9.90;99.90;;;;;;5229608;28;20413;-84
2022/05/04 02:55:36;;;;;;;3.42;2.58;;;10.10;99.90;;;;;;5229494;28;20075;-84
2022/05/04 02:58:07;;;;;;;5.15;2.88;;;9.90;99.90;;;;;;5229401;28;20025;-77
2022/05/04 03:00:38;;;;;;;8.60;2.60;;;9.90;99.90;;;;;;5229220;28;20087;-76
2022/05/04 03:03:08;;;;;;;5.70;2.75;;;10.10;99.90;;;;;;5229239;28;20048;-78
2022/05/04 03:05:39;;;;;;;5.03;2.78;;;9.90;99.90;;;;;;5229240;28;20051;-76
2022/05/04 03:08:10;;;;;;;4.25;2.63;;;10.00;99.90;;;;;;5229516;28;20029;-77
2022/05/04 03:13:30;;;;;;;4.78;2.97;;;10.20;99.90;;;;;;5229244;28;20100;-76
2022/05/04 03:16:01;;;;;;;5.85;2.92;;;10.20;99.90;;;;;;5229209;28;20038;-76
2022/05/04 03:18:32;;;;;;;8.60;3.22;;;9.90;99.90;;;;;;5229081;28;20071;-83
2022/05/04 03:21:03;;;;;;;9.82;2.88;;;10.10;99.90;;;;;;5228979;28;20477;-76
2022/05/04 03:23:34;;;;;;;11.10;3.65;;;10.20;99.90;;;;;;5228800;28;20021;-76
2022/05/04 03:26:08;;;;;;;9.98;3.60;;;10.10;99.90;;;;;;5228618;28;20040;-77
2022/05/04 03:28:39;;;;;;;8.68;3.55;;;10.10;99.90;;;;;;5228650;28;20044;-76
2022/05/04 03:31:10;;;;;;;6.35;3.70;;;10.20;99.90;;;;;;5227490;28;20203;-77
2022/05/04 03:33:40;;;;;;;6.32;3.03;;;10.30;99.90;;;;;;5228759;28;20044;-76
2022/05/04 03:36:11;;;;;;;6.32;3.00;;;10.20;99.90;;;;;;5228417;28;20104;-76
2022/05/04 03:38:44;;;;;;;8.35;3.50;;;10.00;99.90;;;;;;5228491;28;20029;-76
2022/05/04 03:41:15;;;;;;;6.60;3.20;;;10.00;99.90;;;;;;5227366;28;20037;-77
2022/05/04 03:43:46;;;;;;;6.53;3.10;;;9.90;99.90;;;;;;5228524;28;20071;-76
2022/05/04 03:46:19;;;;;;;5.60;3.70;;;10.00;99.90;;;;;;5227177;28;20032;-76
2022/05/04 03:48:52;;;;;;;11.00;4.20;;;10.20;99.90;;;;;;5228228;28;20017;-76
2022/05/04 03:51:23;;;;;;;4.75;3.25;;;10.30;99.90;;;;;;5228661;28;20060;-76
2022/05/04 03:53:54;;;;;;;7.55;3.70;;;10.10;99.90;;;;;;5227047;28;20101;-76
2022/05/04 03:56:26;;;;;;;6.45;4.53;;;10.10;99.90;;;;;;5226891;28;20036;-83
2022/05/04 03:58:57;;;;;;;8.73;5.40;;;10.40;99.90;;;;;;5228032;28;20075;-84
2022/05/04 04:01:28;;;;;;;8.18;4.65;;;10.30;99.90;;;;;;5228136;28;20486;-76
2022/05/04 04:03:59;;;;;;;8.23;5.07;;;10.30;99.90;;;;;;5227902;28;20087;-76
2022/05/04 04:06:32;;;;;;;5.68;3.97;;;10.40;99.90;;;;;;5226842;28;20079;-77
2022/05/04 04:09:03;;;;;;;8.40;3.42;;;10.30;99.90;;;;;;5226855;28;20036;-76
2022/05/04 04:11:34;;;;;;;11.18;4.30;;;10.40;99.90;;;;;;5226729;28;20433;-84
2022/05/04 04:14:05;;;;;;;8.18;5.05;;;10.30;99.90;;;;;;5227972;28;20032;-76
2022/05/04 04:16:36;;;;;;;10.00;5.00;;;10.30;99.90;;;;;;5227645;28;20029;-76
2022/05/04 04:19:09;;;;;;;5.22;3.78;;;10.40;99.90;;;;;;5227853;28;20025;-76
2022/05/04 04:21:52;;;;;;;10.38;5.43;;;10.30;99.90;;;;;;5228140;28;20033;-76
2022/05/04 04:24:23;;;;;;;6.20;3.88;;;10.50;99.90;;;;;;5227956;28;20051;-77
2022/05/04 04:26:54;;;;;;;10.27;4.15;;;10.50;99.90;;;;;;5226228;28;20064;-83
2022/05/04 04:29:25;;;;;;;5.95;3.88;;;10.30;99.90;;;;;;5227907;28;20067;-76
2022/05/04 04:31:56;;;;;;;6.00;3.78;;;10.30;99.90;;;;;;5227788;28;20025;-75
2022/05/04 04:34:27;;;;;;;8.52;4.25;;;10.30;99.90;;;;;;5227764;28;20025;-77
2022/05/04 04:36:58;;;;;;;10.35;4.38;;;10.40;99.90;;;;;;5227978;28;20112;-83
2022/05/04 04:39:28;;;;;;;7.28;4.30;;;10.50;99.90;;;;;;5227663;28;20108;-78
2022/05/04 04:41:59;;;;;;;7.53;4.22;;;10.60;99.90;;;;;;5227393;28;20128;-76
2022/05/04 04:44:30;;;;;;;7.55;4.03;;;10.60;99.90;;;;;;5227791;28;20482;-76
2022/05/04 04:47:01;;;;;;;8.88;4.03;;;10.70;99.90;;;;;;5227480;28;20043;-82
2022/05/04 04:49:31;;;;;;;7.22;4.88;;;10.90;99.90;;;;;;5230980;28;20021;-76
2022/05/04 04:52:03;;;;;;;9.60;4.72;;;11.10;99.90;;;;;;5231873;28;20362;-81
2022/05/04 04:54:33;;;;;;;9.60;5.45;;;11.20;99.90;;;;;;5232077;28;20056;-77
2022/05/04 04:57:05;;;;;;;9.25;4.30;;;11.30;99.90;;;;;;5231820;28;20111;-78
2022/05/04 04:59:35;;;;;;;6.18;4.25;;;11.10;99.90;;;;;;5231923;28;20082;-76
2022/05/04 05:02:06;;;;;;;9.55;3.90;;;11.20;99.90;;;;;;5231832;28;20036;-76
2022/05/04 05:04:37;;;;;;;7.05;4.22;;;11.20;99.90;;;;;;5231569;28;20021;-83
2022/05/04 05:07:08;;;;;;;9.43;4.07;;;11.40;99.90;;;;;;5232014;28;20029;-77
2022/05/04 05:09:38;;;;;;;9.82;3.28;;;11.40;99.90;;;;;;5231525;28;20025;-76
2022/05/04 05:12:10;;;;;;;8.73;3.47;;;11.20;99.90;;;;;;5231490;28;20029;-76
2022/05/04 05:17:31;;;;;;;8.02;3.55;;;11.20;99.90;;;;;;5231294;28;20098;-76
2022/05/04 05:20:03;;;;;;;9.23;3.40;;;11.30;99.90;;;;;;5231649;28;20028;-78
2022/05/04 05:22:35;;;;;;;5.55;2.92;;;11.30;99.90;;;;;;5231368;28;20033;-76
2022/05/04 05:25:06;;;;;;;6.47;2.97;;;11.40;99.90;;;;;;5231011;28;20346;-83
2022/05/04 05:27:37;;;;;;;20.88;10.18;;;11.30;99.90;;;;;;5230784;28;20056;-83
2022/05/04 05:30:08;;;;;;;9.38;4.65;;;11.40;99.90;;;;;;5231098;28;20108;-77
2022/05/04 05:32:39;;;;;;;10.75;6.72;;;11.60;99.90;;;;;;5231150;28;20044;-76
2022/05/04 05:35:10;;;;;;;6.65;4.95;;;11.70;99.90;;;;;;5230875;28;20029;-83
2022/05/04 05:37:41;;;;;;;5.47;3.88;;;11.90;99.90;;;;;;5230854;28;20404;-79
2022/05/04 05:40:12;;;;;;;6.45;4.47;;;11.80;99.90;;;;;;5229728;28;20107;-77
2022/05/04 05:42:43;;;;;;;11.80;4.97;;;12.00;99.90;;;;;;5230707;28;20040;-78
2022/05/04 05:45:14;;;;;;;6.63;2.90;;;12.10;99.90;;;;;;5230799;28;20021;-77
2022/05/04 05:47:45;;;;;;;4.35;3.22;;;12.00;99.90;;;;;;5229494;28;20380;-83
2022/05/04 05:50:17;;;;;;;5.10;3.63;;;12.10;99.90;;;;;;5230765;28;20025;-77
2022/05/04 05:52:47;;;;;;;9.45;3.95;;;12.20;99.90;;;;;;5230900;28;20032;-80
2022/05/04 05:55:18;;;;;;;5.10;3.17;;;12.40;99.90;;;;;;5230529;28;20481;-82
2022/05/04 05:57:49;;;;;;;8.50;4.20;;;12.30;99.90;;;;;;5230400;28;20114;-82
2022/05/04 06:00:20;;;;;;;8.98;5.68;;;12.20;99.90;;;;;;5229297;28;20086;-83
2022/05/04 06:02:51;;;;;;;8.65;5.82;;;12.20;99.90;;;;;;5230565;28;20033;-78
2022/05/04 06:05:22;;;;;;;8.00;3.38;;;12.30;99.90;;;;;;5230300;28;20091;-83
2022/05/04 06:07:53;;;;;;;8.10;2.95;;;12.30;99.90;;;;;;5230426;28;20083;-83
2022/05/04 06:10:24;;;;;;;4.15;2.88;;;12.50;99.90;;;;;;5230421;28;20519;-77
2022/05/04 06:12:54;;;;;;;9.25;4.20;;;12.60;99.90;;;;;;5230410;28;20060;-83
2022/05/04 06:15:25;;;;;;;9.82;4.57;;;12.80;99.90;;;;;;5230104;28;20013;-83
2022/05/04 06:17:56;;;;;;;4.18;2.70;;;12.80;99.90;;;;;;5230231;28;20022;-76
2022/05/04 06:20:27;;;;;;;5.00;3.00;;;12.60;99.90;;;;;;5230101;28;20021;-83
2022/05/04 06:22:58;;;;;;;6.43;2.65;;;12.80;99.90;;;;;;5230068;28;20036;-76
2022/05/04 06:25:29;;;;;;;7.85;2.60;;;12.70;99.90;;;;;;5230027;28;20384;-78
2022/05/04 06:27:59;;;;;;;3.47;2.45;;;12.60;99.90;;;;;;5229566;28;20492;-78
2022/05/04 06:36:09;;;;;;;6.73;3.10;;;12.40;99.90;;;;;;5229890;28;20028;-76
2022/05/04 06:38:40;;;;;;;4.55;3.17;;;12.60;99.90;;;;;;5229849;28;20021;-76
2022/05/04 06:41:11;;;;;;;4.45;2.50;;;12.40;99.90;;;;;;5229609;28;20154;-81
2022/05/04 06:43:43;;;;;;;3.92;2.38;;;12.40;99.90;;;;;;5229367;28;20033;-78
2022/05/04 06:46:15;;;;;;;4.45;2.60;;;12.60;99.90;;;;;;5229775;28;20051;-76
2022/05/04 06:48:46;;;;;;;4.50;2.55;;;12.70;99.90;;;;;;5229597;28;20028;-83
2022/05/04 06:51:17;;;;;;;5.28;2.17;;;12.60;99.90;;;;;;5228745;28;20029;-82
2022/05/04 06:53:47;;;;;;;5.57;2.00;;;12.50;99.90;;;;;;5229548;28;20389;-80
2022/05/04 06:56:18;;;;;;;3.45;1.77;;;12.60;99.90;;;;;;5229201;28;20068;-87
2022/05/04 06:58:49;;;;;;;4.50;2.10;;;12.70;99.90;;;;;;5229339;28;20025;-77
2022/05/04 07:01:20;;;;;;;4.57;2.60;;;12.80;99.90;;;;;;5228937;28;20064;-76
2022/05/04 07:03:51;;;;;;;5.50;2.33;;;12.60;99.90;;;;;;5227948;28;20063;-76
2022/05/04 07:06:22;;;;;;;7.28;3.15;;;12.90;99.90;;;;;;5230556;28;20542;-77
2022/05/04 07:08:52;;;;;;;6.78;2.90;;;12.90;99.90;;;;;;5249602;28;20380;-76
2022/05/04 07:11:23;;;;;;;5.05;2.83;;;12.80;99.90;;;;;;5249595;28;20070;-77
2022/05/04 07:13:54;;;;;;;5.65;2.63;;;12.80;99.90;;;;;;5249784;28;20107;-78
2022/05/04 07:16:25;;;;;;;5.75;2.97;;;12.90;99.90;;;;;;5244672;28;20412;-82
2022/05/04 07:18:56;;;;;;;7.63;3.13;;;12.80;99.90;;;;;;5247566;28;20472;-82
2022/05/04 07:21:27;;;;;;;6.68;3.63;;;12.90;99.90;;;;;;5249180;28;20079;-78
2022/05/04 07:23:58;;;;;;;6.25;3.40;;;13.20;99.90;;;;;;5249069;28;20024;-77
2022/05/04 07:26:29;;;;;;;8.70;3.78;;;13.00;99.90;;;;;;5247723;28;20040;-82
2022/05/04 07:29:00;;;;;;;8.40;4.30;;;13.10;99.90;;;;;;5249019;28;20102;-77
2022/05/04 07:31:30;;;;;;;5.03;3.50;;;13.20;99.90;;;;;;5236788;28;20021;-78
2022/05/04 07:34:01;;;;;;;8.38;3.72;;;13.20;99.90;;;;;;5232487;28;20025;-76
2022/05/04 07:36:32;;;;;;;7.00;4.57;;;13.30;99.90;;;;;;5244119;28;20052;-77
2022/05/04 07:39:03;;;;;;;6.85;3.22;;;13.40;99.90;;;;;;5242090;28;20056;-76
2022/05/04 07:44:23;;;;;;;7.03;4.15;;;13.60;99.90;;;;;;5228822;28;20024;-85
2022/05/04 07:46:54;;;;;;;5.47;2.67;;;13.60;99.90;;;;;;5228677;28;20029;-77
2022/05/04 07:49:25;;;;;;;3.63;2.10;;;13.60;99.90;;;;;;5228412;28;20033;-77
2022/05/04 07:51:56;;;;;;;3.63;2.35;;;13.70;99.90;;;;;;5227097;28;20427;-81
2022/05/04 07:54:28;;;;;;;4.80;2.40;;;13.90;99.90;;;;;;5228542;28;20029;-77
2022/05/04 07:56:59;;;;;;;5.28;2.25;;;13.80;99.90;;;;;;5228392;28;20056;-86
2022/05/04 07:59:30;;;;;;;5.75;2.20;;;13.80;99.90;;;;;;5227037;28;20116;-81
2022/05/04 08:04:51;;;;;;;6.17;2.77;;;14.20;99.90;;;;;;5228191;28;20024;-77
2022/05/04 08:07:21;;;;;;;3.25;1.85;;;14.30;99.90;;;;;;5228119;28;20389;-77
2022/05/04 08:09:52;;;;;;;4.60;2.33;;;14.00;99.90;;;;;;5228306;28;20070;-87
2022/05/04 08:12:23;;;;;;;4.50;1.90;;;14.30;99.90;;;;;;5228044;28;20413;-88
2022/05/04 08:14:54;;;;;;;4.90;1.90;;;14.20;99.90;;;;;;5228136;28;20457;-79
2022/05/04 08:17:25;;;;;;;3.78;1.85;;;14.60;99.90;;;;;;5227885;28;20029;-77
2022/05/04 08:19:56;;;;;;;4.90;2.13;;;14.70;99.90;;;;;;5227671;28;20021;-83
2022/05/04 08:22:27;;;;;;;10.82;4.10;;;15.00;99.90;;;;;;5226181;28;20112;-88
2022/05/04 08:24:58;;;;;;;6.45;3.25;;;15.00;99.90;;;;;;5227934;28;20063;-88
2022/05/04 08:27:31;;;;;;;3.53;2.00;;;15.20;99.90;;;;;;5227625;28;20049;-78
2022/05/04 08:30:03;;;;;;;5.30;1.83;;;16.30;99.90;;;;;;5226716;28;20040;-81
2022/05/04 08:32:34;;;;;;;6.82;2.40;;;15.40;99.90;;;;;;5228047;28;20032;-89
2022/05/04 08:35:05;;;;;;;4.25;2.00;;;15.20;99.90;;;;;;5226439;28;20461;-78
2022/05/04 08:37:37;;;;;;;5.50;2.55;;;15.10;99.90;;;;;;5227140;28;20021;-88
2022/05/04 08:40:11;;;;;;;4.95;2.22;;;15.20;99.90;;;;;;5228423;28;20025;-78
2022/05/04 08:42:44;;;;;;;4.78;1.90;;;15.40;99.90;;;;;;5228996;28;20487;-83
2022/05/04 08:45:15;;;;;;;4.50;2.53;;;15.10;99.90;;;;;;5230007;28;20465;-77
2022/05/04 08:47:46;;;;;;;5.60;2.30;;;15.00;99.90;;;;;;5237324;28;20024;-85
2022/05/04 08:50:18;;;;;;;5.57;2.28;;;15.10;99.90;;;;;;5247455;28;20033;-91
2022/05/04 08:52:53;;;;;;;5.00;2.10;;;15.30;99.90;;;;;;5248743;28;20017;-88
2022/05/04 08:55:24;;;;;;;6.78;2.00;;;15.30;99.90;;;;;;5249054;28;20032;-77
2022/05/04 08:57:57;;;;;;;3.25;2.40;;;15.40;99.90;;;;;;5242829;28;20056;-75
2022/05/04 09:00:28;;;;;;;8.57;3.45;;;15.60;99.90;;;;;;5226556;28;20048;-87
2022/05/04 09:02:59;;;;;;;8.60;3.05;;;15.50;99.90;;;;;;5228048;28;20025;-83
2022/05/04 09:05:31;;;;;;;6.38;2.58;;;15.30;99.90;;;;;;5227633;28;20107;-77
2022/05/04 09:08:02;;;;;;;7.85;2.33;;;15.50;99.90;;;;;;5163150;28;20502;-80
2022/05/04 09:10:38;;;;;;;3.38;2.08;;;15.30;99.90;;;;;;5217980;28;20029;-87
2022/05/04 09:13:09;;;;;;;4.32;1.75;;;15.40;99.90;;;;;;5227934;28;20159;-78
2022/05/04 09:15:40;;;;;;;4.70;2.30;;;15.70;99.90;;;;;;5227334;28;20116;-78
2022/05/04 09:18:16;;;;;;;10.27;3.42;;;15.70;99.90;;;;;;5228031;28;20460;-89
2022/05/04 09:20:55;;;;;;;5.70;2.17;;;16.00;99.90;;;;;;5227156;28;20040;-91
2022/05/04 09:23:31;;;;;;;5.43;2.53;;;15.80;99.90;;;;;;5227978;28;20151;-90
2022/05/04 09:26:05;;;;;;;7.65;2.60;;;15.80;99.90;;;;;;5227412;28;20051;-84
2022/05/04 09:28:36;;;;;;;4.43;2.40;;;16.30;99.90;;;;;;5227160;28;20085;-82
2022/05/04 09:31:08;;;;;;;3.80;2.75;;;16.10;99.90;;;;;;5227257;28;20052;-91
2022/05/04 09:33:38;;;;;;;6.00;2.58;;;16.20;99.90;;;;;;5227850;28;20362;-79
2022/05/04 09:36:13;;;;;;;3.38;2.10;;;16.40;99.90;;;;;;5230696;28;20070;-89
2022/05/04 09:45:20;;;;;;;8.63;2.90;;;16.90;99.90;;;;;;5197938;28;20128;-86
2022/05/04 09:47:51;;;;;;;7.93;2.25;;;16.40;99.90;;;;;;5210710;28;20025;-82
2022/05/04 09:50:27;;;;;;;3.83;2.35;;;16.50;99.90;;;;;;5209901;28;20095;-77
2022/05/04 09:53:00;;;;;;;3.42;1.90;;;16.60;99.90;;;;;;5210213;28;20433;-90
2022/05/04 09:55:32;;;;;;;6.57;2.35;;;16.00;99.90;;;;;;5217876;28;20488;-78
2022/05/04 09:58:03;;;;;;;7.22;2.80;;;16.70;99.90;;;;;;5230523;28;20021;-78
2022/05/04 10:00:35;;;;;;;3.83;2.13;;;16.70;99.90;;;;;;5226280;28;20363;-91
2022/05/04 10:03:06;;;;;;;3.60;2.45;;;16.80;99.90;;;;;;5222431;28;20017;-84
2022/05/04 10:05:37;;;;;;;4.07;2.15;;;16.70;99.90;;;;;;5212865;28;20495;-77
2022/05/04 10:08:08;;;;;;;3.60;2.28;;;16.40;99.90;;;;;;5225960;28;20032;-91
2022/05/04 10:10:40;;;;;;;4.68;2.42;;;16.20;99.90;;;;;;5230626;28;20059;-78
2022/05/04 10:13:11;;;;;;;3.67;1.80;;;16.70;99.90;;;;;;5230295;28;20025;-91
2022/05/04 10:15:42;;;;;;;4.47;1.90;;;16.10;99.90;;;;;;5230077;28;20434;-76
2022/05/04 10:18:20;;;;;;;5.80;2.30;;;16.60;99.90;;;;;;5230210;28;20021;-92
2022/05/04 10:21:15;;;;;;;4.63;2.20;;;16.30;99.90;;;;;;5230101;28;20112;-76
2022/05/04 10:23:54;;;;;;;5.03;2.05;;;16.60;99.90;;;;;;5230111;28;20021;-77
2022/05/04 10:26:36;;;;;;;2.55;1.40;;;16.30;99.90;;;;;;5229910;28;20043;-76
2022/05/04 10:32:37;;;;;;;4.50;1.80;;;17.40;99.90;;;;;;5230387;28;20020;-90
2022/05/04 10:35:20;;;;;;;2.83;1.88;;;17.20;99.90;;;;;;5230008;28;20049;-78
2022/05/04 10:37:59;;;;;;;5.57;2.15;;;17.50;99.90;;;;;;5230234;28;20060;-91
2022/05/04 10:40:37;;;;;;;8.48;1.38;;;17.60;99.90;;;;;;5230006;28;20090;-89
2022/05/04 10:43:33;;;;;;;6.38;2.63;;;17.60;99.90;;;;;;5229784;28;20134;-77
2022/05/04 10:46:16;;;;;;;6.65;2.20;;;17.80;99.90;;;;;;5229274;28;20542;-79
2022/05/04 10:48:57;;;;;;;6.00;2.45;;;18.00;99.90;;;;;;5229986;28;20080;-85
2022/05/04 10:51:29;;;;;;;5.78;2.20;;;17.30;99.90;;;;;;5229596;28;20069;-76
2022/05/04 10:54:09;;;;;;;26.08;3.92;;;17.50;99.90;;;;;;5229544;28;20021;-86
2022/05/04 10:56:44;;;;;;;5.65;1.90;;;17.60;99.90;;;;;;5229313;28;20021;-75
2022/05/04 10:59:24;;;;;;;4.78;1.70;;;17.40;99.90;;;;;;5229400;28;20481;-88
2022/05/04 11:02:00;;;;;;;4.03;2.20;;;16.90;99.90;;;;;;5229418;28;20033;-80
2022/05/04 11:04:35;;;;;;;3.60;1.67;;;17.50;99.90;;;;;;5228007;28;20346;-86
2022/05/04 11:07:07;;;;;;;7.75;3.55;;;18.00;99.90;;;;;;5229325;28;20029;-76
2022/05/04 11:09:42;;;;;;;3.25;2.10;;;17.70;99.90;;;;;;5229084;28;20029;-77
2022/05/04 11:12:13;;;;;;;2.78;1.60;;;17.60;99.90;;;;;;5229491;28;20013;-81
2022/05/04 11:14:44;;;;;;;9.57;1.73;;;17.60;99.90;;;;;;5229142;28;20040;-75
2022/05/04 11:17:16;;;;;;;5.68;1.73;;;17.30;99.90;;;;;;5215749;28;20461;-74
2022/05/04 11:19:47;;;;;;;4.70;1.85;;;17.10;99.90;;;;;;5208147;28;20044;-88
2022/05/04 11:22:19;;;;;;;5.32;2.17;;;17.40;99.90;;;;;;5222846;28;20060;-74
2022/05/04 11:24:50;;;;;;;4.03;2.40;;;17.20;99.90;;;;;;5228679;28;20032;-74
2022/05/04 11:27:21;;;;;;;4.10;2.35;;;18.00;99.90;;;;;;5228437;28;20041;-75
2022/05/04 11:29:52;;;;;;;3.03;2.13;;;17.70;99.90;;;;;;5213612;28;20049;-74
2022/05/04 11:32:22;;;;;;;2.53;1.63;;;17.50;99.90;;;;;;5207686;28;20049;-87
2022/05/04 11:34:56;;;;;;;4.45;1.88;;;17.70;99.90;;;;;;5207723;28;20064;-74
2022/05/04 11:37:31;;;;;;;3.10;2.13;;;17.70;99.90;;;;;;5207696;28;20049;-86
2022/05/04 11:40:16;;;;;;;3.83;1.63;;;17.70;99.90;;;;;;5206401;28;20099;-75
2022/05/04 11:42:48;;;;;;;2.92;1.83;;;17.00;99.90;;;;;;5207497;28;20034;-74
2022/05/04 11:45:20;;;;;;;3.78;2.03;;;17.60;99.90;;;;;;5207564;28;20017;-75
2022/05/04 11:47:52;;;;;;;3.97;1.70;;;18.40;99.90;;;;;;5207439;28;20147;-75
2022/05/04 11:50:23;;;;;;;2.20;1.73;;;18.10;99.90;;;;;;5207504;28;20104;-75
2022/05/04 11:52:54;;;;;;;4.90;2.03;;;18.20;99.90;;;;;;5207443;28;20052;-75
2022/05/04 11:55:25;;;;;;;4.07;2.45;;;17.90;99.90;;;;;;5207257;28;20512;-75
2022/05/04 11:57:59;;;;;;;2.92;2.10;;;17.30;99.90;;;;;;5206493;28;20053;-86
2022/05/04 12:00:30;;;;;;;13.52;6.10;;;17.20;99.90;;;;;;5207197;28;20496;-85
2022/05/04 12:03:01;;;;;;;13.68;6.60;;;17.40;99.90;;;;;;5207242;28;20036;-74
2022/05/04 12:05:37;;;;;;;9.40;4.03;;;17.80;99.90;;;;;;5207339;28;20622;-87
2022/05/04 12:08:08;;;;;;;4.20;1.13;;;18.30;99.90;;;;;;5217188;28;20384;-75
2022/05/04 12:10:39;;;;;;;4.13;1.70;;;17.90;99.90;;;;;;5225465;28;20033;-75
2022/05/04 12:13:10;;;;;;;4.15;2.00;;;18.80;99.90;;;;;;5207337;28;20048;-75
2022/05/04 12:15:42;;;;;;;4.38;1.55;;;17.90;99.90;;;;;;5211587;28;20029;-85
2022/05/04 12:18:14;;;;;;;2.60;1.48;;;17.30;99.90;;;;;;5227725;28;20148;-75
2022/05/04 12:20:48;;;;;;;9.20;1.92;;;17.40;99.90;;;;;;5214962;28;20033;-81
2022/05/04 12:23:19;;;;;;;2.97;1.95;;;17.60;99.90;;;;;;5207967;28;20030;-86
2022/05/04 12:25:50;;;;;;;3.72;1.65;;;18.00;99.90;;;;;;5205822;28;20072;-85
2022/05/04 12:28:21;;;;;;;4.75;2.08;;;18.20;99.90;;;;;;5206797;28;20052;-74
2022/05/04 12:33:41;;;;;;;2.38;1.60;;;18.30;99.90;;;;;;5222911;28;20082;-79
2022/05/04 12:36:12;;;;;;;2.45;1.83;;;18.50;99.90;;;;;;5227687;28;20492;-87
2022/05/04 12:38:46;;;;;;;2.95;1.83;;;18.90;99.90;;;;;;5215882;28;20025;-75
2022/05/04 12:41:26;;;;;;;5.15;2.20;;;18.90;99.90;;;;;;5206555;28;20081;-84
2022/05/04 12:44:01;;;;;;;;;;;17.50;99.90;;;;;;5219734;28;20373;-79
2022/05/04 12:46:32;;;;;;;5.35;1.80;;;17.90;99.90;;;;;;5227261;28;19999;-79
2022/05/04 12:49:04;;;;;;;3.58;1.42;;;17.60;99.90;;;;;;5215913;28;20490;-85
2022/05/04 12:51:36;;;;;;;3.80;1.50;;;18.10;99.90;;;;;;5206894;28;20021;-85
2022/05/04 12:54:09;;;;;;;4.45;2.03;;;17.90;99.90;;;;;;5206641;28;20116;-78
2022/05/04 12:56:46;;;;;;;3.60;2.72;;;18.70;99.90;;;;;;5211634;28;20069;-83
2022/05/04 12:59:19;;;;;;;5.10;2.30;;;18.30;99.90;;;;;;5223978;28;20041;-79
2022/05/04 13:01:50;;;;;;;4.60;2.88;;;18.60;99.90;;;;;;5206547;28;20037;-84
2022/05/04 13:04:21;;;;;;;2.72;1.85;;;19.00;99.90;;;;;;5206352;28;20080;-85
2022/05/04 13:06:52;;;;;;;3.25;2.00;;;19.00;99.90;;;;;;5206639;28;20469;-74
2022/05/04 13:09:22;;;;;;;3.47;1.77;;;18.90;99.90;;;;;;5208059;28;20022;-74
2022/05/04 13:11:53;;;;;;;4.07;2.38;;;17.50;99.90;;;;;;5210351;28;20584;-77
2022/05/04 13:14:24;;;;;;;5.20;2.95;;;17.50;99.90;;;;;;5222483;28;20366;-75
2022/05/04 13:16:55;;;;;;;10.27;5.57;;;18.30;99.90;;;;;;5231048;28;20033;-83
2022/05/04 13:19:26;;;;;;;3.30;2.50;;;17.40;99.90;;;;;;5231671;28;20021;-74
2022/05/04 13:21:57;;;;;;;1.92;1.33;;;17.90;99.90;;;;;;5231019;28;20040;-81
2022/05/04 13:24:28;;;;;;;5.07;1.90;;;17.30;99.90;;;;;;5230993;28;20033;-82
2022/05/04 13:26:58;;;;;;;2.78;1.60;;;18.00;99.90;;;;;;5230968;28;20069;-83
2022/05/04 13:29:29;;;;;;;6.88;2.08;;;17.90;99.90;;;;;;5231206;28;20468;-75
2022/05/04 13:32:00;;;;;;;5.93;2.40;;;17.40;99.90;;;;;;5231632;28;20033;-75
2022/05/04 13:34:31;;;;;;;4.15;1.95;;;17.40;99.90;;;;;;5230788;28;20036;-74
2022/05/04 13:37:02;;;;;;;8.35;1.63;;;17.60;99.90;;;;;;5229093;28;20033;-74
2022/05/04 13:39:33;;;;;;;3.10;1.58;;;18.20;99.90;;;;;;5230425;28;20382;-76
2022/05/04 13:42:04;;;;;;;3.28;1.30;;;18.10;99.90;;;;;;5230458;28;20461;-74